createdAt,value
2019-05-03T00:02:23.826Z,99.90
2019-05-03T00:04:57.354Z,99.90
2019-05-03T00:07:26.560Z,99.90
2019-05-03T00:09:55.757Z,99.90
2019-05-03T00:12:24.643Z,99.90
2019-05-03T00:15:02.665Z,99.90
2019-05-03T00:17:32.455Z,99.90
2019-05-03T00:20:02.314Z,99.90
2019-05-03T00:22:32.374Z,99.70
2019-05-03T00:25:06.083Z,99.70
2019-05-03T00:27:32.293Z,99.30
2019-05-03T00:30:02.820Z,99.30
2019-05-03T00:32:32.144Z,99.30
2019-05-03T00:35:18.975Z,99.20
2019-05-03T00:37:49.676Z,98.60
2019-05-03T00:40:32.369Z,98.60
2019-05-03T00:43:02.321Z,98.10
2019-05-03T00:45:31.667Z,98.50
2019-05-03T00:48:01.873Z,97.50
2019-05-03T00:50:32.071Z,97.10
2019-05-03T00:53:02.357Z,96.00
2019-05-03T00:55:32.812Z,95.20
2019-05-03T00:58:02.468Z,94.40
2019-05-03T01:00:32.289Z,94.40
2019-05-03T01:03:02.159Z,94.50
2019-05-03T01:05:32.950Z,94.60
2019-05-03T01:08:02.026Z,95.30
2019-05-03T01:10:51.640Z,95.40
2019-05-03T01:13:21.888Z,95.80
2019-05-03T01:15:58.263Z,95.60
2019-05-03T01:18:27.099Z,95.90
2019-05-03T01:20:55.924Z,96.70
2019-05-03T01:23:24.744Z,97.20
2019-05-03T01:25:54.547Z,97.90
2019-05-03T01:28:23.859Z,98.50
2019-05-03T01:30:52.680Z,99.00
2019-05-03T01:33:22.603Z,99.40
2019-05-03T01:35:51.918Z,99.20
2019-05-03T01:38:22.542Z,99.70
2019-05-03T01:40:52.185Z,99.90
2019-05-03T01:43:22.178Z,99.90
2019-05-03T01:45:51.878Z,99.90
2019-05-03T01:48:32.210Z,99.90
2019-05-03T01:51:02.898Z,99.90
2019-05-03T01:53:33.434Z,99.90
2019-05-03T01:56:03.634Z,99.90
2019-05-03T01:58:33.088Z,99.90
2019-05-03T02:01:18.753Z,99.90
2019-05-03T02:03:49.128Z,99.90
2019-05-03T02:06:17.961Z,99.90
2019-05-03T02:08:46.765Z,99.90
2019-05-03T02:11:15.567Z,99.90
2019-05-03T02:13:44.402Z,99.90
2019-05-03T02:16:14.465Z,99.90
2019-05-03T02:18:43.266Z,99.90
2019-05-03T02:21:12.298Z,99.90
2019-05-03T02:23:42.525Z,99.90
2019-05-03T02:26:11.825Z,99.90
2019-05-03T02:28:42.178Z,99.90
2019-05-03T02:31:13.389Z,99.90
2019-05-03T02:33:43.399Z,99.90
2019-05-03T02:36:13.638Z,99.90
2019-05-03T02:38:43.183Z,99.90
2019-05-03T02:41:13.538Z,99.90
2019-05-03T02:43:55.784Z,99.90
2019-05-03T02:46:41.215Z,99.90
2019-05-03T02:49:11.608Z,99.90
2019-05-03T02:51:40.401Z,99.90
2019-05-03T02:54:09.236Z,99.90
2019-05-03T02:56:38.070Z,99.90
2019-05-03T02:59:06.960Z,99.90
2019-05-03T03:01:35.976Z,99.90
2019-05-03T03:04:05.568Z,99.90
2019-05-03T03:06:36.643Z,99.90
2019-05-03T03:09:06.788Z,99.90
2019-05-03T03:11:38.445Z,99.90
2019-05-03T03:14:10.505Z,99.90
2019-05-03T03:16:41.375Z,99.90
2019-05-03T03:19:15.744Z,99.90
2019-05-03T03:21:46.816Z,99.90
2019-05-03T03:24:18.648Z,99.90
2019-05-03T03:26:50.011Z,99.90
2019-05-03T03:29:21.772Z,99.90
2019-05-03T03:32:09.114Z,99.90
2019-05-03T03:35:03.363Z,99.90
2019-05-03T03:37:29.624Z,99.90
2019-05-03T03:39:58.386Z,99.90
2019-05-03T03:42:28.721Z,99.90
2019-05-03T03:44:58.029Z,99.90
2019-05-03T03:47:29.723Z,99.90
2019-05-03T03:49:59.728Z,99.90
2019-05-03T03:52:30.337Z,99.90
2019-05-03T03:55:00.929Z,99.90
2019-05-03T03:57:32.509Z,99.90
2019-05-03T04:00:01.342Z,99.90
2019-05-03T04:02:30.332Z,99.90
2019-05-03T04:04:59.104Z,99.90
2019-05-03T04:07:28.048Z,99.90
2019-05-03T04:09:58.156Z,99.90
2019-05-03T04:12:27.765Z,99.90
2019-05-03T04:15:05.672Z,99.90
2019-05-03T04:17:52.434Z,99.90
2019-05-03T04:20:25.393Z,99.90
2019-05-03T04:22:56.023Z,99.90
2019-05-03T04:25:26.257Z,99.90
2019-05-03T04:27:56.085Z,99.90
2019-05-03T04:30:25.721Z,99.90
2019-05-03T04:32:56.459Z,99.90
2019-05-03T04:35:26.521Z,99.90
2019-05-03T04:37:56.768Z,99.90
2019-05-03T04:40:26.229Z,99.90
2019-05-03T04:42:56.079Z,99.90
2019-05-03T04:45:25.615Z,99.90
2019-05-03T04:47:55.951Z,99.90
2019-05-03T04:50:25.769Z,99.90
2019-05-03T04:52:56.747Z,99.90
2019-05-03T04:55:26.636Z,99.90
2019-05-03T04:57:56.341Z,99.90
2019-05-03T05:00:25.885Z,99.90
2019-05-03T05:02:55.752Z,99.90
2019-05-03T05:05:26.135Z,99.90
2019-05-03T05:07:55.676Z,99.90
2019-05-03T05:10:25.983Z,99.90
2019-05-03T05:12:55.601Z,99.90
2019-05-03T05:15:26.430Z,99.90
2019-05-03T05:17:59.616Z,99.90
2019-05-03T05:20:39.069Z,99.90
2019-05-03T05:23:08.362Z,99.90
2019-05-03T05:25:41.544Z,99.90
2019-05-03T05:28:11.910Z,99.90
2019-05-03T05:30:40.942Z,99.90
2019-05-03T05:33:11.322Z,99.90
2019-05-03T05:35:40.251Z,99.90
2019-05-03T05:38:09.045Z,99.90
2019-05-03T05:40:38.257Z,99.90
2019-05-03T05:43:07.072Z,99.90
2019-05-03T05:45:35.860Z,99.90
2019-05-03T05:48:06.288Z,99.90
2019-05-03T05:50:36.665Z,99.90
2019-05-03T05:53:06.354Z,99.90
2019-05-03T05:55:54.822Z,99.90
2019-05-03T05:58:25.620Z,99.90
2019-05-03T06:00:59.164Z,99.90
2019-05-03T06:03:27.977Z,99.90
2019-05-03T06:05:58.373Z,99.90
2019-05-03T06:08:40.640Z,99.90
2019-05-03T06:11:16.660Z,99.90
2019-05-03T06:13:54.514Z,99.90
2019-05-03T06:16:27.940Z,99.90
2019-05-03T06:18:58.290Z,99.90
2019-05-03T06:21:31.646Z,99.90
2019-05-03T06:24:02.076Z,99.90
2019-05-03T06:26:38.193Z,99.90
2019-05-03T06:29:08.625Z,99.90
2019-05-03T06:31:38.984Z,99.90
2019-05-03T06:34:07.826Z,99.90
2019-05-03T06:36:38.163Z,99.90
2019-05-03T06:39:08.832Z,99.90
2019-05-03T06:41:37.945Z,99.90
2019-05-03T06:44:06.772Z,99.90
2019-05-03T06:46:46.572Z,99.90
2019-05-03T06:49:16.751Z,99.90
2019-05-03T06:51:49.689Z,99.90
2019-05-03T06:54:20.738Z,99.90
2019-05-03T06:56:46.889Z,99.90
2019-05-03T06:59:35.861Z,99.90
2019-05-03T07:02:15.374Z,99.90
2019-05-03T07:04:45.786Z,99.90
2019-05-03T07:07:18.995Z,99.90
2019-05-03T07:10:01.447Z,99.90
2019-05-03T07:12:31.834Z,99.90
2019-05-03T07:15:00.955Z,99.90
2019-05-03T07:17:32.611Z,99.90
2019-05-03T07:20:01.449Z,99.90
2019-05-03T07:22:31.232Z,99.90
2019-05-03T07:25:00.095Z,99.90
2019-05-03T07:27:28.936Z,99.90
2019-05-03T07:29:57.732Z,99.90
2019-05-03T07:32:26.569Z,99.90
2019-05-03T07:34:56.339Z,99.90
2019-05-03T07:37:25.147Z,99.90
2019-05-03T07:39:55.598Z,99.90
2019-05-03T07:42:25.615Z,99.90
2019-05-03T07:44:56.012Z,99.90
2019-05-03T07:47:24.902Z,99.90
2019-05-03T07:49:54.678Z,99.90
2019-05-03T07:52:23.583Z,99.90
2019-05-03T07:54:52.917Z,99.90
2019-05-03T07:57:25.861Z,99.90
2019-05-03T07:59:55.729Z,99.90
2019-05-03T08:02:27.259Z,99.90
2019-05-03T08:04:55.144Z,99.90
2019-05-03T08:07:25.673Z,99.90
2019-05-03T08:09:55.553Z,99.90
2019-05-03T08:12:24.896Z,98.60
2019-05-03T08:14:55.207Z,99.60
2019-05-03T08:17:25.517Z,98.60
2019-05-03T08:19:55.186Z,97.40
2019-05-03T08:22:25.495Z,98.00
2019-05-03T08:24:55.478Z,96.40
2019-05-03T08:27:25.242Z,97.30
2019-05-03T08:29:55.754Z,97.00
2019-05-03T08:32:29.265Z,96.50
2019-05-03T08:35:11.793Z,96.70
2019-05-03T08:37:48.029Z,97.90
2019-05-03T08:40:17.450Z,98.40
2019-05-03T08:42:47.143Z,98.10
2019-05-03T08:45:15.971Z,95.70
2019-05-03T08:47:45.929Z,96.40
2019-05-03T08:50:20.863Z,96.80
2019-05-03T08:52:45.583Z,95.20
2019-05-03T08:55:15.899Z,95.70
2019-05-03T08:57:45.034Z,96.90
2019-05-03T09:00:16.170Z,96.70
2019-05-03T09:02:44.993Z,98.00
2019-05-03T09:05:15.753Z,97.80
2019-05-03T09:07:44.819Z,96.80
2019-05-03T09:10:25.015Z,96.90
2019-05-03T09:13:14.722Z,97.80
2019-05-03T09:15:45.359Z,98.10
2019-05-03T09:18:17.170Z,94.90
2019-05-03T09:20:44.924Z,96.30
2019-05-03T09:23:14.878Z,97.80
2019-05-03T09:25:45.831Z,96.30
2019-05-03T09:28:15.041Z,96.70
2019-05-03T09:30:45.344Z,96.80
2019-05-03T09:33:15.305Z,97.40
2019-05-03T09:35:45.733Z,96.90
2019-05-03T09:38:15.136Z,97.00
2019-05-03T09:40:45.387Z,98.90
2019-05-03T09:43:15.165Z,98.00
2019-05-03T09:45:45.764Z,98.70
2019-05-03T09:48:15.096Z,98.20
2019-05-03T09:50:45.172Z,98.20
2019-05-03T09:53:19.885Z,96.60
2019-05-03T09:55:49.456Z,97.40
2019-05-03T09:58:18.583Z,99.40
2019-05-03T10:00:48.617Z,99.90
2019-05-03T10:03:24.578Z,99.90
2019-05-03T10:06:06.022Z,99.90
2019-05-03T10:08:45.320Z,99.90
2019-05-03T10:11:16.613Z,99.90
2019-05-03T10:13:56.414Z,99.90
2019-05-03T10:16:26.515Z,99.90
2019-05-03T10:19:01.953Z,99.90
2019-05-03T10:21:35.455Z,99.90
2019-05-03T10:24:15.219Z,99.40
2019-05-03T10:26:45.568Z,99.80
2019-05-03T10:29:15.242Z,99.90
2019-05-03T10:31:54.609Z,99.90
2019-05-03T10:34:24.828Z,98.40
2019-05-03T10:36:54.942Z,99.90
2019-05-03T10:39:26.125Z,99.90
2019-05-03T10:41:54.967Z,99.90
2019-05-03T10:44:24.611Z,99.90
2019-05-03T10:46:54.024Z,99.90
2019-05-03T10:49:24.526Z,98.70
2019-05-03T10:51:57.689Z,99.90
2019-05-03T10:54:26.521Z,99.90
2019-05-03T10:56:56.929Z,99.90
2019-05-03T10:59:25.770Z,99.80
2019-05-03T11:02:10.919Z,99.20
2019-05-03T11:04:51.451Z,99.40
2019-05-03T11:07:20.601Z,98.00
2019-05-03T11:09:52.397Z,97.10
2019-05-03T11:12:27.637Z,95.50
2019-05-03T11:14:56.715Z,95.30
2019-05-03T11:17:25.680Z,95.20
2019-05-03T11:19:54.765Z,95.80
2019-05-03T11:22:25.255Z,94.60
2019-05-03T11:24:55.770Z,95.50
2019-05-03T11:27:29.221Z,94.70
2019-05-03T11:29:59.275Z,97.20
2019-05-03T11:32:46.385Z,94.50
2019-05-03T11:35:16.790Z,94.60
2019-05-03T11:37:52.767Z,95.70
2019-05-03T11:40:26.385Z,93.90
2019-05-03T11:43:11.489Z,95.00
2019-05-03T11:45:40.073Z,93.90
2019-05-03T11:48:08.907Z,93.10
2019-05-03T11:50:37.719Z,93.20
2019-05-03T11:53:06.557Z,93.50
2019-05-03T11:55:35.410Z,92.50
2019-05-03T11:58:05.953Z,93.90
2019-05-03T12:00:36.380Z,92.40
2019-05-03T12:03:07.286Z,92.00
2019-05-03T12:05:36.105Z,92.30
2019-05-03T12:08:05.409Z,92.00
2019-05-03T12:10:51.021Z,94.90
2019-05-03T12:13:12.239Z,94.40
2019-05-03T12:15:55.149Z,92.70
2019-05-03T12:18:25.176Z,92.90
2019-05-03T12:20:56.858Z,93.90
2019-05-03T12:23:26.200Z,97.30
2019-05-03T12:25:55.977Z,99.10
2019-05-03T12:28:25.649Z,99.70
2019-05-03T12:30:54.800Z,99.90
2019-05-03T12:33:26.037Z,99.30
2019-05-03T12:35:55.225Z,99.20
2019-05-03T12:38:25.538Z,97.90
2019-05-03T12:40:54.692Z,99.10
2019-05-03T12:43:25.500Z,98.20
2019-05-03T12:45:54.446Z,98.00
2019-05-03T12:48:24.642Z,98.80
2019-05-03T12:50:54.080Z,99.00
2019-05-03T12:53:24.660Z,98.90
2019-05-03T12:55:53.532Z,99.90
2019-05-03T12:58:25.382Z,98.50
2019-05-03T13:00:55.931Z,99.50
2019-05-03T13:03:31.907Z,98.50
2019-05-03T13:06:00.728Z,98.90
2019-05-03T13:08:37.925Z,96.80
2019-05-03T13:11:07.281Z,97.80
2019-05-03T13:13:36.364Z,97.60
2019-05-03T13:16:06.609Z,99.30
2019-05-03T13:18:35.637Z,97.30
2019-05-03T13:21:06.081Z,97.50
2019-05-03T13:23:35.764Z,97.80
2019-05-03T13:26:05.798Z,97.70
2019-05-03T13:28:35.283Z,98.90
2019-05-03T13:31:05.795Z,94.40
2019-05-03T13:33:35.158Z,97.00
2019-05-03T13:36:04.609Z,98.60
2019-05-03T13:38:35.033Z,99.00
2019-05-03T13:41:06.447Z,96.60
2019-05-03T13:43:35.580Z,96.10
2019-05-03T13:46:05.351Z,99.90
2019-05-03T13:48:42.496Z,99.90
2019-05-03T13:51:05.241Z,99.90
2019-05-03T13:53:34.832Z,99.90
2019-05-03T13:56:04.857Z,97.80
2019-05-03T13:58:35.589Z,97.10
2019-05-03T14:01:05.531Z,96.00
2019-05-03T14:03:35.308Z,94.60
2019-05-03T14:06:08.724Z,95.40
2019-05-03T14:08:35.229Z,97.30
2019-05-03T14:11:04.983Z,96.80
2019-05-03T14:13:35.494Z,96.90
2019-05-03T14:16:05.726Z,97.00
2019-05-03T14:18:35.530Z,97.30
2019-05-03T14:21:11.753Z,97.80
2019-05-03T14:23:58.400Z,98.80
2019-05-03T14:26:27.614Z,98.40
2019-05-03T14:28:56.454Z,98.60
2019-05-03T14:31:25.331Z,99.00
2019-05-03T14:33:55.858Z,99.60
2019-05-03T14:36:25.812Z,97.50
2019-05-03T14:38:55.146Z,99.90
2019-05-03T14:41:25.372Z,99.90
2019-05-03T14:43:55.652Z,99.90
2019-05-03T14:46:32.563Z,99.90
2019-05-03T14:48:55.638Z,99.90
2019-05-03T14:51:25.363Z,99.90
2019-05-03T14:53:56.957Z,99.90
2019-05-03T14:56:28.959Z,99.90
2019-05-03T14:59:11.105Z,99.90
2019-05-03T15:01:41.562Z,99.90
2019-05-03T15:04:10.774Z,99.90
2019-05-03T15:06:39.567Z,99.90
2019-05-03T15:09:08.369Z,99.90
2019-05-03T15:11:37.257Z,99.90
2019-05-03T15:14:06.113Z,99.90
2019-05-03T15:16:34.910Z,99.90
2019-05-03T15:19:05.426Z,99.90
2019-05-03T15:21:34.682Z,99.90
2019-05-03T15:24:05.294Z,99.90
2019-05-03T15:26:35.671Z,99.90
2019-05-03T15:29:04.930Z,99.90
2019-05-03T15:31:35.406Z,99.90
2019-05-03T15:34:04.693Z,99.90
2019-05-03T15:36:33.547Z,99.90
2019-05-03T15:39:02.380Z,99.90
2019-05-03T15:41:34.431Z,99.90
2019-05-03T15:44:21.663Z,99.90
2019-05-03T15:46:58.048Z,99.90
2019-05-03T15:49:27.743Z,99.90
2019-05-03T15:51:56.658Z,99.90
2019-05-03T15:54:25.510Z,99.90
2019-05-03T15:56:54.423Z,99.90
2019-05-03T15:59:24.422Z,99.90
2019-05-03T16:01:55.188Z,99.90
2019-05-03T16:04:25.043Z,99.90
2019-05-03T16:06:55.374Z,99.90
2019-05-03T16:09:24.815Z,99.90
2019-05-03T16:11:55.434Z,99.90
2019-05-03T16:14:24.327Z,99.90
2019-05-03T16:16:54.699Z,99.90
2019-05-03T16:19:24.274Z,99.90
2019-05-03T16:21:54.532Z,99.90
2019-05-03T16:24:24.926Z,99.90
2019-05-03T16:27:12.164Z,99.90
2019-05-03T16:29:41.502Z,99.90
2019-05-03T16:32:10.635Z,99.90
2019-05-03T16:34:39.815Z,99.90
2019-05-03T16:37:08.663Z,99.90
2019-05-03T16:39:37.464Z,99.90
2019-05-03T16:42:06.897Z,99.90
2019-05-03T16:44:36.061Z,99.90
2019-05-03T16:47:07.173Z,99.90
2019-05-03T16:49:35.345Z,99.90
2019-05-03T16:52:05.603Z,99.90
2019-05-03T16:54:35.081Z,99.90
2019-05-03T16:57:05.795Z,99.90
2019-05-03T16:59:35.230Z,99.90
2019-05-03T17:02:05.791Z,99.90
2019-05-03T17:04:38.856Z,99.90
2019-05-03T17:07:09.213Z,99.90
2019-05-03T17:09:54.805Z,99.90
2019-05-03T17:12:31.174Z,99.90
2019-05-03T17:15:00.000Z,99.90
2019-05-03T17:17:28.816Z,99.90
2019-05-03T17:19:57.649Z,99.90
2019-05-03T17:22:26.459Z,99.90
2019-05-03T17:24:55.582Z,99.90
2019-05-03T17:27:25.255Z,99.90
2019-05-03T17:29:55.310Z,99.90
2019-05-03T17:32:24.712Z,99.90
2019-05-03T17:34:54.845Z,99.90
2019-05-03T17:37:25.631Z,99.90
2019-05-03T17:40:12.500Z,99.90
2019-05-03T17:42:59.220Z,99.90
2019-05-03T17:45:29.590Z,99.90
2019-05-03T17:47:58.806Z,99.90
2019-05-03T17:50:27.635Z,99.90
2019-05-03T17:52:58.002Z,99.90
2019-05-03T17:55:44.856Z,99.90
2019-05-03T17:58:26.933Z,99.90
2019-05-03T18:01:13.843Z,99.90
2019-05-03T18:04:06.565Z,99.90
2019-05-03T18:06:32.218Z,99.90
2019-05-03T18:09:05.160Z,99.90
2019-05-03T18:11:42.336Z,99.90
2019-05-03T18:14:11.043Z,99.90
2019-05-03T18:16:40.252Z,99.90
2019-05-03T18:19:09.087Z,99.90
2019-05-03T18:21:37.920Z,99.90
2019-05-03T18:24:06.734Z,99.90
2019-05-03T18:26:35.642Z,99.90
2019-05-03T18:29:05.795Z,99.90
2019-05-03T18:31:35.235Z,99.90
2019-05-03T18:34:06.228Z,99.90
2019-05-03T18:36:34.770Z,99.90
2019-05-03T18:39:05.526Z,99.90
2019-05-03T18:41:35.300Z,99.90
2019-05-03T18:44:05.918Z,99.90
2019-05-03T18:46:36.315Z,99.90
2019-05-03T18:49:05.322Z,99.90
2019-05-03T18:51:34.453Z,99.90
2019-05-03T18:54:07.052Z,99.90
2019-05-03T18:56:34.726Z,99.90
2019-05-03T18:59:05.099Z,99.90
2019-05-03T19:01:34.790Z,99.90
2019-05-03T19:04:05.528Z,99.90
2019-05-03T19:06:34.691Z,99.90
2019-05-03T19:09:11.852Z,99.90
2019-05-03T19:11:42.264Z,99.90
2019-05-03T19:14:25.446Z,99.90
2019-05-03T19:17:08.151Z,99.90
2019-05-03T19:19:44.669Z,99.90
2019-05-03T19:22:15.304Z,99.90
2019-05-03T19:24:44.473Z,99.90
2019-05-03T19:27:13.451Z,99.90
2019-05-03T19:29:44.735Z,99.90
2019-05-03T19:32:14.846Z,99.90
2019-05-03T19:34:50.120Z,99.90
2019-05-03T19:37:14.620Z,99.90
2019-05-03T19:39:43.488Z,99.90
2019-05-03T19:42:12.302Z,99.90
2019-05-03T19:44:41.525Z,99.90
2019-05-03T19:47:10.717Z,99.90
2019-05-03T19:49:39.553Z,99.90
2019-05-03T19:52:08.940Z,99.90
2019-05-03T19:54:37.771Z,99.90
2019-05-03T19:57:06.609Z,99.90
2019-05-03T19:59:56.732Z,99.90
2019-05-03T20:02:26.708Z,99.90
2019-05-03T20:05:05.996Z,99.90
2019-05-03T20:07:54.258Z,99.90
2019-05-03T20:10:24.927Z,99.90
2019-05-03T20:12:53.662Z,99.90
2019-05-03T20:15:22.494Z,99.90
2019-05-03T20:17:59.138Z,99.90
2019-05-03T20:20:22.110Z,99.90
2019-05-03T20:22:50.904Z,99.90
2019-05-03T20:25:19.735Z,99.90
2019-05-03T20:27:48.847Z,99.90
2019-05-03T20:30:17.888Z,99.90
2019-05-03T20:32:46.691Z,99.90
2019-05-03T20:35:19.024Z,99.90
2019-05-03T20:37:46.067Z,99.90
2019-05-03T20:40:15.464Z,99.90
2019-05-03T20:43:00.745Z,99.90
2019-05-03T20:45:31.453Z,99.90
2019-05-03T20:48:01.459Z,99.90
2019-05-03T20:50:30.294Z,99.90
2019-05-03T20:52:59.266Z,99.90
2019-05-03T20:55:28.097Z,99.90
2019-05-03T20:57:56.948Z,99.90
2019-05-03T21:00:26.963Z,99.90
2019-05-03T21:02:57.277Z,99.90
2019-05-03T21:05:30.958Z,99.90
2019-05-03T21:07:57.011Z,99.90
2019-05-03T21:10:25.847Z,99.90
2019-05-03T21:12:54.675Z,99.90
2019-05-03T21:15:44.506Z,99.90
2019-05-03T21:18:17.798Z,99.90
2019-05-03T21:20:48.183Z,99.90
2019-05-03T21:23:18.892Z,99.90
2019-05-03T21:26:08.225Z,99.90
2019-05-03T21:28:26.402Z,99.90
2019-05-03T21:30:55.592Z,99.90
2019-05-03T21:33:25.823Z,99.90
2019-05-03T21:35:55.697Z,99.90
2019-05-03T21:38:24.658Z,99.90
2019-05-03T21:40:54.651Z,99.90
2019-05-03T21:43:25.589Z,99.90
2019-05-03T21:46:15.155Z,99.90
2019-05-03T21:49:02.103Z,99.90
2019-05-03T21:51:30.898Z,99.90
2019-05-03T21:54:00.718Z,99.90
2019-05-03T21:56:29.523Z,99.90
2019-05-03T21:58:58.374Z,99.90
2019-05-03T22:01:27.624Z,99.90
2019-05-03T22:03:56.487Z,99.90
2019-05-03T22:06:25.278Z,99.90
2019-05-03T22:08:55.402Z,99.90
2019-05-03T22:11:25.138Z,99.90
2019-05-03T22:13:57.047Z,99.90
2019-05-03T22:16:28.011Z,99.90
2019-05-03T22:18:56.839Z,99.90
2019-05-03T22:21:30.060Z,99.90
2019-05-03T22:24:17.587Z,99.90
2019-05-03T22:26:54.059Z,99.90
2019-05-03T22:29:25.239Z,99.90
2019-05-03T22:31:54.865Z,99.90
2019-05-03T22:34:25.626Z,99.90
2019-05-03T22:36:54.882Z,99.90
2019-05-03T22:39:24.972Z,99.90
2019-05-03T22:41:54.051Z,99.90
2019-05-03T22:44:25.122Z,99.90
2019-05-03T22:46:55.090Z,99.90
2019-05-03T22:49:25.720Z,99.90
2019-05-03T22:51:54.439Z,99.90
2019-05-03T22:54:24.595Z,99.90
2019-05-03T22:56:55.437Z,99.90
2019-05-03T22:59:25.180Z,99.90
2019-05-03T23:01:54.751Z,99.90
2019-05-03T23:04:25.294Z,99.90
2019-05-03T23:06:55.490Z,99.90
2019-05-03T23:09:25.038Z,99.90
2019-05-03T23:11:55.184Z,99.90
2019-05-03T23:14:25.543Z,99.90
2019-05-03T23:16:54.560Z,99.90
2019-05-03T23:19:23.398Z,99.90
2019-05-03T23:22:05.773Z,99.90
2019-05-03T23:24:35.270Z,99.90
2019-05-03T23:27:05.048Z,99.90
2019-05-03T23:29:34.960Z,99.90
2019-05-03T23:32:04.735Z,99.90
2019-05-03T23:34:35.165Z,99.90
2019-05-03T23:37:05.441Z,99.90
2019-05-03T23:39:34.417Z,99.90
2019-05-03T23:42:05.027Z,99.90
2019-05-03T23:44:35.176Z,99.90
2019-05-03T23:47:08.526Z,99.90
2019-05-03T23:49:37.615Z,99.90
2019-05-03T23:52:26.475Z,99.90
2019-05-03T23:54:59.735Z,99.90
2019-05-03T23:57:28.652Z,99.90
2019-05-03T23:59:57.471Z,99.90
